createdAt,value
2023-05-19T00:00:27.777Z,116.5714
2023-05-19T00:01:35.813Z,117.0714
2023-05-19T00:02:44.112Z,117.6429
2023-05-19T00:03:52.069Z,115.5714
2023-05-19T00:05:00.145Z,115.4286
2023-05-19T00:06:08.276Z,117.7143
2023-05-19T00:07:16.238Z,118.0714
2023-05-19T00:08:24.314Z,121.7143
2023-05-19T00:09:32.389Z,122.2143
2023-05-19T00:10:40.435Z,121.0714
2023-05-19T00:11:48.664Z,121.7857
2023-05-19T00:12:56.565Z,117.7143
2023-05-19T00:14:04.472Z,117.9286
2023-05-19T00:15:12.535Z,114.1429
2023-05-19T00:16:20.648Z,113.5714
2023-05-19T00:17:28.876Z,112.5000
2023-05-19T00:18:36.868Z,120.5000
2023-05-19T00:19:44.913Z,118.0000
2023-05-19T00:20:52.959Z,120.9286
2023-05-19T00:22:01.117Z,118.8571
2023-05-19T00:23:09.238Z,118.1429
2023-05-19T00:24:17.330Z,117.7143
2023-05-19T00:25:25.301Z,112.8571
2023-05-19T00:26:33.358Z,114.9286
2023-05-19T00:27:41.421Z,112.6429
2023-05-19T00:28:49.401Z,116.5714
2023-05-19T00:29:57.470Z,115.3571
2023-05-19T00:31:05.460Z,110.5000
2023-05-19T00:32:13.745Z,112.9286
2023-05-19T00:33:21.759Z,115.5714
2023-05-19T00:34:29.905Z,115.2143
2023-05-19T00:35:37.999Z,115.5714
2023-05-19T00:36:45.922Z,118.5714
2023-05-19T00:37:54.009Z,120.3571
2023-05-19T00:39:02.086Z,119.0714
2023-05-19T00:40:10.197Z,119.7143
2023-05-19T00:41:18.189Z,119.3571
2023-05-19T00:42:26.384Z,117.0000
2023-05-19T00:43:34.205Z,115.5714
2023-05-19T00:44:42.231Z,117.3571
2023-05-19T00:45:50.377Z,116.5000
2023-05-19T00:46:58.570Z,116.3571
2023-05-19T00:48:06.643Z,116.8571
2023-05-19T00:49:14.611Z,115.2857
2023-05-19T00:50:22.722Z,120.0714
2023-05-19T00:51:30.812Z,122.8571
2023-05-19T00:52:38.815Z,121.2143
2023-05-19T00:53:46.898Z,117.5714
2023-05-19T00:54:54.957Z,113.6429
2023-05-19T00:56:03.072Z,114.7143
2023-05-19T00:57:11.210Z,118.1429
2023-05-19T00:58:18.987Z,115.7857
2023-05-19T00:59:27.071Z,113.8571
2023-05-19T01:00:35.372Z,116.2143
2023-05-19T01:01:43.625Z,114.4286
2023-05-19T01:02:51.511Z,115.7143
2023-05-19T01:03:59.653Z,115.7857
2023-05-19T01:05:07.562Z,116.7857
2023-05-19T01:06:15.794Z,116.4286
2023-05-19T01:07:23.631Z,118.2143
2023-05-19T01:08:31.812Z,117.8571
2023-05-19T01:09:39.737Z,116.8571
2023-05-19T01:10:47.820Z,119.0714
2023-05-19T01:11:55.954Z,114.8571
2023-05-19T01:13:03.820Z,113.5714
2023-05-19T01:14:11.962Z,112.3571
2023-05-19T01:15:19.958Z,108.7857
2023-05-19T01:16:28.140Z,108.1429
2023-05-19T01:17:36.370Z,111.0714
2023-05-19T01:18:44.548Z,108.4286
2023-05-19T01:19:52.469Z,112.4286
2023-05-19T01:21:00.396Z,107.7143
2023-05-19T01:22:08.434Z,107.0000
2023-05-19T01:23:16.805Z,109.5000
2023-05-19T01:24:24.710Z,108.7143
2023-05-19T01:25:32.707Z,107.1429
2023-05-19T01:26:40.715Z,105.2857
2023-05-19T01:27:48.597Z,107.0000
2023-05-19T01:28:56.678Z,107.9286
2023-05-19T01:30:04.757Z,109.5714
2023-05-19T01:31:13.072Z,110.7143
2023-05-19T01:32:21.084Z,109.8571
2023-05-19T01:33:29.232Z,113.2857
2023-05-19T01:34:37.198Z,115.5714
2023-05-19T01:35:45.170Z,115.6429
2023-05-19T01:36:53.316Z,113.3571
2023-05-19T01:38:01.493Z,115.0000
2023-05-19T01:39:09.352Z,117.4286
2023-05-19T01:40:17.412Z,110.8571
2023-05-19T01:41:25.622Z,107.5000
2023-05-19T01:42:33.453Z,110.1429
2023-05-19T01:43:41.472Z,109.8571
2023-05-19T01:44:49.547Z,111.7857
2023-05-19T01:45:57.730Z,108.6429
2023-05-19T01:47:05.704Z,106.7857
2023-05-19T01:48:13.937Z,105.9286
2023-05-19T01:49:22.051Z,107.5000
2023-05-19T01:50:30.190Z,107.7143
2023-05-19T01:51:38.068Z,109.9286
2023-05-19T01:52:46.192Z,105.5714
2023-05-19T01:53:54.198Z,106.5000
2023-05-19T01:55:02.217Z,109.8571
2023-05-19T01:56:10.335Z,104.7857
2023-05-19T01:57:18.230Z,110.1429
2023-05-19T01:58:26.298Z,108.4286
2023-05-19T01:59:34.367Z,109.1429
2023-05-19T02:00:42.536Z,110.5714
2023-05-19T02:01:50.564Z,111.1429
2023-05-19T02:02:58.725Z,107.9286
2023-05-19T02:04:06.765Z,109.1429
2023-05-19T02:05:14.975Z,109.2143
2023-05-19T02:06:22.819Z,108.3571
2023-05-19T02:07:30.971Z,109.4286
2023-05-19T02:08:38.992Z,109.3571
2023-05-19T02:09:47.051Z,108.7857
2023-05-19T02:10:55.155Z,109.5714
2023-05-19T02:12:03.070Z,113.4286
2023-05-19T02:13:11.100Z,110.3571
2023-05-19T02:14:19.168Z,112.9286
2023-05-19T02:15:27.371Z,112.3571
2023-05-19T02:16:35.448Z,112.2857
2023-05-19T02:17:43.679Z,109.3571
2023-05-19T02:18:51.622Z,108.2857
2023-05-19T02:19:59.619Z,110.5714
2023-05-19T02:21:07.881Z,112.7143
2023-05-19T02:22:15.802Z,113.2143
2023-05-19T02:23:23.813Z,111.8571
2023-05-19T02:24:31.881Z,107.8571
2023-05-19T02:25:39.943Z,108.8571
2023-05-19T02:26:47.859Z,109.6429
2023-05-19T02:27:55.980Z,108.4286
2023-05-19T02:29:04.011Z,104.5714
2023-05-19T02:30:12.459Z,107.7857
2023-05-19T02:31:20.304Z,107.5000
2023-05-19T02:32:28.351Z,103.5714
2023-05-19T02:33:36.459Z,104.1429
2023-05-19T02:34:44.465Z,105.7143
2023-05-19T02:35:52.523Z,107.7143
2023-05-19T02:37:00.728Z,106.6429
2023-05-19T02:38:08.641Z,104.1429
2023-05-19T02:39:16.732Z,104.0000
2023-05-19T02:40:24.729Z,102.2857
2023-05-19T02:41:32.693Z,103.9286
2023-05-19T02:42:40.756Z,101.7143
2023-05-19T02:43:48.807Z,103.2143
2023-05-19T02:44:57.090Z,103.7857
2023-05-19T02:46:05.118Z,102.0714
2023-05-19T02:47:13.119Z,104.8571
2023-05-19T02:48:21.077Z,106.2143
2023-05-19T02:49:29.259Z,103.7857
2023-05-19T02:50:37.343Z,99.8571
2023-05-19T02:51:45.527Z,98.2857
2023-05-19T02:52:53.498Z,101.4286
2023-05-19T02:54:01.630Z,101.7143
2023-05-19T02:55:09.559Z,100.4286
2023-05-19T02:56:17.688Z,101.9286
2023-05-19T02:57:25.572Z,100.4286
2023-05-19T02:58:33.650Z,100.9286
2023-05-19T02:59:42.102Z,102.5714
2023-05-19T03:00:49.881Z,101.1429
2023-05-19T03:01:58.015Z,100.8571
2023-05-19T03:03:06.096Z,100.9286
2023-05-19T03:04:14.082Z,98.3571
2023-05-19T03:05:22.132Z,99.0000
2023-05-19T03:06:30.212Z,98.2857
2023-05-19T03:07:38.349Z,101.5000
2023-05-19T03:08:46.306Z,100.4286
2023-05-19T03:09:54.383Z,98.3571
2023-05-19T03:11:02.328Z,96.0714
2023-05-19T03:12:10.395Z,98.2857
2023-05-19T03:13:18.446Z,93.7857
2023-05-19T03:14:26.611Z,96.4286
2023-05-19T03:15:34.695Z,96.3571
2023-05-19T03:16:42.784Z,98.9286
2023-05-19T03:17:50.933Z,98.2857
2023-05-19T03:18:58.984Z,95.7143
2023-05-19T03:20:06.931Z,96.2857
2023-05-19T03:21:14.847Z,98.5714
2023-05-19T03:22:23.010Z,97.5000
2023-05-19T03:23:31.099Z,95.2857
2023-05-19T03:24:39.201Z,95.8571
2023-05-19T03:25:47.068Z,94.6429
2023-05-19T03:26:55.160Z,92.9286
2023-05-19T03:28:03.173Z,96.6429
2023-05-19T03:29:11.476Z,94.9286
2023-05-19T03:30:19.461Z,92.1429
2023-05-19T03:31:27.504Z,92.8571
2023-05-19T03:32:35.604Z,89.9286
2023-05-19T03:33:43.853Z,91.3571
2023-05-19T03:34:51.800Z,89.9286
2023-05-19T03:35:59.786Z,93.1429
2023-05-19T03:37:07.860Z,89.5000
2023-05-19T03:38:15.871Z,89.1429
2023-05-19T03:39:23.914Z,91.9286
2023-05-19T03:40:32.136Z,91.2857
2023-05-19T03:41:39.934Z,90.4286
2023-05-19T03:42:47.963Z,90.5000
2023-05-19T03:43:56.190Z,88.7143
2023-05-19T03:45:04.226Z,88.4286
2023-05-19T03:46:12.334Z,90.0000
2023-05-19T03:47:20.452Z,87.1429
2023-05-19T03:48:28.390Z,89.7857
2023-05-19T03:49:36.442Z,90.0000
2023-05-19T03:50:44.837Z,90.8571
2023-05-19T03:51:52.637Z,89.8571
2023-05-19T03:53:00.679Z,93.1429
2023-05-19T03:54:08.672Z,90.6429
2023-05-19T03:55:16.634Z,90.0000
2023-05-19T03:56:24.678Z,91.5000
2023-05-19T03:57:32.774Z,88.6429
2023-05-19T03:58:40.969Z,89.3571
2023-05-19T03:59:49.011Z,91.0000
2023-05-19T04:00:57.054Z,90.5000
2023-05-19T04:02:05.586Z,91.5714
2023-05-19T04:03:13.265Z,93.3571
2023-05-19T04:04:21.274Z,94.1429
2023-05-19T04:05:29.301Z,90.8571
2023-05-19T04:06:37.331Z,95.3571
2023-05-19T04:07:45.623Z,91.5000
2023-05-19T04:08:53.501Z,93.8571
2023-05-19T04:10:01.423Z,92.9286
2023-05-19T04:11:09.468Z,92.0000
2023-05-19T04:12:17.552Z,91.6429
2023-05-19T04:13:25.943Z,91.4286
2023-05-19T04:14:33.829Z,93.2143
2023-05-19T04:15:41.918Z,90.8571
2023-05-19T04:16:49.905Z,93.2857
2023-05-19T04:17:58.015Z,90.7857
2023-05-19T04:19:06.149Z,90.5714
2023-05-19T04:20:14.223Z,94.0000
2023-05-19T04:21:22.153Z,90.6429
2023-05-19T04:22:30.205Z,90.9286
2023-05-19T04:23:38.477Z,94.2857
2023-05-19T04:24:46.253Z,95.7143
2023-05-19T04:25:54.330Z,95.5000
2023-05-19T04:27:02.374Z,94.5714
2023-05-19T04:28:10.527Z,95.3571
2023-05-19T04:29:18.791Z,97.0000
2023-05-19T04:30:26.767Z,98.2857
2023-05-19T04:31:34.999Z,97.5000
2023-05-19T04:32:42.845Z,98.4286
2023-05-19T04:33:50.924Z,100.0000
2023-05-19T04:34:58.961Z,100.6429
2023-05-19T04:36:07.003Z,107.5714
2023-05-19T04:37:15.146Z,108.7143
2023-05-19T04:38:23.157Z,112.7143
2023-05-19T04:39:31.070Z,117.0000
2023-05-19T04:40:39.158Z,118.7857
2023-05-19T04:41:47.242Z,119.2143
2023-05-19T04:42:55.411Z,116.7143
2023-05-19T04:44:03.457Z,121.7143
2023-05-19T04:45:11.565Z,119.0000
2023-05-19T04:46:19.600Z,119.9286
2023-05-19T04:47:27.895Z,119.2857
2023-05-19T04:48:35.745Z,120.2143
2023-05-19T04:49:43.832Z,119.2143
2023-05-19T04:50:51.965Z,119.0000
2023-05-19T04:51:59.926Z,118.4286
2023-05-19T04:53:08.037Z,121.7143
2023-05-19T04:54:15.902Z,122.0000
2023-05-19T04:55:23.966Z,122.0000
2023-05-19T04:56:32.024Z,123.8571
2023-05-19T04:57:40.245Z,122.1429
2023-05-19T04:58:48.317Z,122.4286
2023-05-19T04:59:56.578Z,124.9286
2023-05-19T05:01:04.380Z,122.9286
2023-05-19T05:02:12.607Z,128.7143
2023-05-19T05:03:20.695Z,126.6429
2023-05-19T05:04:28.617Z,127.7143
2023-05-19T05:05:36.769Z,125.9286
2023-05-19T05:06:44.689Z,128.0000
2023-05-19T05:07:52.811Z,126.8571
2023-05-19T05:09:00.699Z,128.3571
2023-05-19T05:10:08.780Z,132.6429
2023-05-19T05:11:16.815Z,130.0000
2023-05-19T05:12:25.000Z,128.5000
2023-05-19T05:13:33.082Z,135.0000
2023-05-19T05:14:41.145Z,134.0714
2023-05-19T05:15:49.210Z,135.5000
2023-05-19T05:16:57.385Z,131.9286
2023-05-19T05:18:05.381Z,135.4286
2023-05-19T05:19:13.595Z,135.8571
2023-05-19T05:20:21.528Z,135.7857
2023-05-19T05:21:29.503Z,137.2143
2023-05-19T05:22:37.555Z,139.2857
2023-05-19T05:23:45.519Z,138.2857
2023-05-19T05:24:53.554Z,137.2143
2023-05-19T05:26:01.614Z,135.5714
2023-05-19T05:27:10.095Z,138.4286
2023-05-19T05:28:17.929Z,137.8571
2023-05-19T05:29:25.986Z,141.2143
2023-05-19T05:30:33.957Z,138.9286
2023-05-19T05:31:42.094Z,134.8571
2023-05-19T05:32:50.211Z,134.2143
2023-05-19T05:33:58.217Z,131.6429
2023-05-19T05:35:06.240Z,131.9286
2023-05-19T05:36:14.434Z,133.0000
2023-05-19T05:37:22.371Z,136.7143
2023-05-19T05:38:30.304Z,131.8571
2023-05-19T05:39:38.365Z,133.2857
2023-05-19T05:40:46.395Z,132.1429
2023-05-19T05:41:54.616Z,133.5000
2023-05-19T05:43:02.641Z,136.9286
2023-05-19T05:44:10.700Z,135.7143
2023-05-19T05:45:18.816Z,133.2143
2023-05-19T05:46:27.076Z,130.3571
2023-05-19T05:47:34.913Z,125.0714
2023-05-19T05:48:43.035Z,129.0714
2023-05-19T05:49:52.995Z,126.9286
2023-05-19T05:51:03.929Z,132.6000
2023-05-19T05:52:11.836Z,133.2857
2023-05-19T05:53:19.940Z,130.5714
2023-05-19T05:54:28.014Z,129.5000
2023-05-19T05:55:36.185Z,128.0714
2023-05-19T05:56:44.239Z,126.9286
2023-05-19T05:57:52.305Z,128.0714
2023-05-19T05:59:00.414Z,126.7143
2023-05-19T06:00:08.574Z,126.8571
2023-05-19T06:01:16.506Z,127.0714
2023-05-19T06:02:24.579Z,124.8571
2023-05-19T06:03:32.708Z,126.3571
2023-05-19T06:04:40.769Z,127.5714
2023-05-19T06:05:48.777Z,127.7857
2023-05-19T06:06:56.638Z,126.7143
2023-05-19T06:08:04.780Z,122.7143
2023-05-19T06:09:12.820Z,127.6429
2023-05-19T06:10:20.942Z,126.7143
2023-05-19T06:11:29.040Z,127.8571
2023-05-19T06:12:37.100Z,129.0000
2023-05-19T06:13:45.337Z,131.5714
2023-05-19T06:14:53.197Z,129.7857
2023-05-19T06:16:02.244Z,131.4286
2023-05-19T06:17:09.329Z,127.0000
2023-05-19T06:18:17.448Z,124.2143
2023-05-19T06:19:25.640Z,124.7143
2023-05-19T06:20:33.567Z,117.6429
2023-05-19T06:21:41.415Z,115.6429
2023-05-19T06:22:49.511Z,116.5000
2023-05-19T06:23:57.730Z,115.2143
2023-05-19T06:25:05.921Z,115.0000
2023-05-19T06:26:13.803Z,112.2143
2023-05-19T06:27:21.831Z,111.0714
2023-05-19T06:28:29.967Z,111.7857
2023-05-19T06:29:38.079Z,112.4286
2023-05-19T06:30:46.052Z,120.5714
2023-05-19T06:31:54.250Z,114.9286
2023-05-19T06:33:02.177Z,113.9286
2023-05-19T06:34:10.251Z,115.5000
2023-05-19T06:35:18.193Z,117.8571
2023-05-19T06:36:26.225Z,117.3571
2023-05-19T06:37:34.301Z,117.8571
2023-05-19T06:38:42.467Z,122.5714
2023-05-19T06:39:50.505Z,120.4286
2023-05-19T06:40:58.830Z,117.2857
2023-05-19T06:42:06.671Z,114.2857
2023-05-19T06:43:14.705Z,116.6429
2023-05-19T06:44:22.752Z,116.0000
2023-05-19T06:45:30.790Z,111.2857
2023-05-19T06:46:39.204Z,115.7857
2023-05-19T06:47:46.982Z,117.7143
2023-05-19T06:48:55.170Z,117.6429
2023-05-19T06:50:02.969Z,110.8571
2023-05-19T06:51:11.027Z,110.3571
2023-05-19T06:52:19.104Z,109.2143
2023-05-19T06:53:27.276Z,113.7857
2023-05-19T06:54:35.344Z,113.1429
2023-05-19T06:55:57.540Z,114.4286
2023-05-19T06:56:56.528Z,117.0667
2023-05-19T06:58:04.394Z,109.0000
2023-05-19T06:59:12.448Z,112.0000
2023-05-19T07:00:22.894Z,110.1429
2023-05-19T07:01:33.643Z,112.3333
2023-05-19T07:02:41.660Z,113.2143
2023-05-19T07:03:49.488Z,116.2143
2023-05-19T07:04:57.486Z,114.5000
2023-05-19T07:06:07.931Z,108.4286
2023-05-19T07:07:18.544Z,107.6000
2023-05-19T07:08:26.679Z,112.8571
2023-05-19T07:09:34.932Z,114.5714
2023-05-19T07:10:42.819Z,123.5714
2023-05-19T07:11:50.851Z,120.5000
2023-05-19T07:12:59.040Z,122.2857
2023-05-19T07:14:06.900Z,120.6429
2023-05-19T07:15:14.927Z,118.9286
2023-05-19T07:16:23.037Z,119.2143
2023-05-19T07:17:31.040Z,119.1429
2023-05-19T07:18:39.145Z,121.5000
2023-05-19T07:19:47.221Z,129.0000
2023-05-19T07:20:55.214Z,132.0714
2023-05-19T07:22:03.470Z,124.2143
2023-05-19T07:23:11.477Z,123.0000
2023-05-19T07:24:19.469Z,123.2857
2023-05-19T07:25:27.552Z,126.2857
2023-05-19T07:26:35.642Z,128.0714
2023-05-19T07:27:43.768Z,129.4286
2023-05-19T07:28:51.712Z,130.8571
2023-05-19T07:29:59.812Z,135.8571
2023-05-19T07:31:07.753Z,135.5000
2023-05-19T07:32:15.876Z,142.1429
2023-05-19T07:33:23.925Z,145.4286
2023-05-19T07:34:32.074Z,145.7143
2023-05-19T07:35:40.147Z,146.5000
2023-05-19T07:36:48.182Z,145.9286
2023-05-19T07:37:56.352Z,153.8571
2023-05-19T07:39:04.344Z,155.8571
2023-05-19T07:40:12.372Z,151.2143
2023-05-19T07:41:20.387Z,148.7857
2023-05-19T07:42:28.545Z,150.3571
2023-05-19T07:43:36.598Z,146.7857
2023-05-19T07:44:44.809Z,146.0714
2023-05-19T07:45:52.776Z,153.6429
2023-05-19T07:47:00.687Z,145.1429
2023-05-19T07:48:08.987Z,151.7857
2023-05-19T07:49:16.726Z,149.7143
2023-05-19T07:50:24.792Z,149.2857
2023-05-19T07:51:32.868Z,148.4286
2023-05-19T07:52:41.151Z,153.4286
2023-05-19T07:53:49.154Z,156.3571
2023-05-19T07:54:57.144Z,160.0714
2023-05-19T07:56:05.391Z,163.0714
2023-05-19T07:57:13.376Z,164.7857
2023-05-19T07:58:21.337Z,166.5000
2023-05-19T07:59:29.386Z,168.5000
2023-05-19T08:00:37.540Z,171.5714
2023-05-19T08:01:45.519Z,172.5000
2023-05-19T08:02:53.674Z,168.4286
2023-05-19T08:04:01.580Z,170.5714
2023-05-19T08:05:09.573Z,174.5000
2023-05-19T08:06:17.674Z,177.2857
2023-05-19T08:07:26.023Z,178.2857
2023-05-19T08:08:34.084Z,176.3571
2023-05-19T08:09:41.946Z,177.2143
2023-05-19T08:10:50.058Z,176.7143
2023-05-19T08:11:58.193Z,176.2143
2023-05-19T08:13:06.102Z,175.5714
2023-05-19T08:14:14.173Z,170.2143
2023-05-19T08:15:22.308Z,167.5714
2023-05-19T08:16:30.635Z,160.7143
2023-05-19T08:17:38.319Z,157.0714
2023-05-19T08:18:46.387Z,154.8571
2023-05-19T08:19:54.332Z,158.9286
2023-05-19T08:21:02.541Z,160.2143
2023-05-19T08:22:10.615Z,160.2857
2023-05-19T08:23:18.685Z,159.9286
2023-05-19T08:24:26.792Z,158.4286
2023-05-19T08:25:34.812Z,160.9286
2023-05-19T08:26:42.879Z,157.8571
2023-05-19T08:27:51.089Z,155.5714
2023-05-19T08:28:59.029Z,155.9286
2023-05-19T08:30:07.024Z,156.1429
2023-05-19T08:31:15.247Z,157.7857
2023-05-19T08:32:23.099Z,152.0714
2023-05-19T08:33:31.083Z,152.9286
2023-05-19T08:34:39.139Z,151.2143
2023-05-19T08:35:47.489Z,154.2143
2023-05-19T08:36:55.546Z,154.0000
2023-05-19T08:38:03.453Z,153.0000
2023-05-19T08:39:11.591Z,154.4286
2023-05-19T08:40:19.656Z,151.5714
2023-05-19T08:41:27.820Z,151.0714
2023-05-19T08:42:35.767Z,150.0714
2023-05-19T08:43:43.831Z,148.5000
2023-05-19T08:44:52.187Z,149.2857
2023-05-19T08:45:59.896Z,153.3571
2023-05-19T08:47:08.021Z,155.2143
2023-05-19T08:48:16.003Z,160.2857
2023-05-19T08:49:25.570Z,163.2857
2023-05-19T08:50:32.506Z,159.7857
2023-05-19T08:51:40.155Z,163.1429
2023-05-19T08:52:51.796Z,161.8571
2023-05-19T08:54:01.288Z,165.6667
2023-05-19T08:55:09.340Z,170.2143
2023-05-19T08:56:17.331Z,174.4286
2023-05-19T08:57:25.475Z,177.7857
2023-05-19T08:58:33.515Z,179.0714
2023-05-19T08:59:41.402Z,174.7143
2023-05-19T09:00:49.517Z,177.2143
2023-05-19T09:01:57.578Z,179.1429
2023-05-19T09:04:13.911Z,182.3571
2023-05-19T09:05:21.914Z,182.5714
2023-05-19T09:06:29.921Z,178.8571
2023-05-19T09:07:38.072Z,182.7143
2023-05-19T09:08:45.998Z,186.0714
2023-05-19T09:09:54.349Z,180.4286
2023-05-19T09:11:02.171Z,179.0000
2023-05-19T09:12:10.291Z,177.7857
2023-05-19T09:13:18.255Z,175.4286
2023-05-19T09:14:26.216Z,177.0000
2023-05-19T09:15:34.602Z,176.8571
2023-05-19T09:16:42.389Z,178.5714
2023-05-19T09:17:50.640Z,182.8571
2023-05-19T09:18:58.621Z,180.8571
2023-05-19T09:20:06.680Z,171.8571
2023-05-19T09:21:14.716Z,168.3571
2023-05-19T09:22:22.836Z,167.2143
2023-05-19T09:23:30.819Z,169.0714
2023-05-19T09:24:38.863Z,170.4286
2023-05-19T09:25:46.981Z,169.8571
2023-05-19T09:26:55.756Z,170.6429
2023-05-19T09:28:07.868Z,169.9333
2023-05-19T09:29:15.853Z,171.2857
2023-05-19T09:30:23.885Z,172.3571
2023-05-19T09:31:32.161Z,171.3571
2023-05-19T09:32:40.165Z,168.1429
2023-05-19T09:33:48.281Z,171.8571
2023-05-19T09:34:56.529Z,173.0000
2023-05-19T09:36:04.320Z,170.0000
2023-05-19T09:37:12.370Z,167.9286
2023-05-19T09:38:20.564Z,170.5714
2023-05-19T09:39:28.553Z,173.1429
2023-05-19T09:40:36.607Z,175.5000
2023-05-19T09:41:44.667Z,177.7143
2023-05-19T09:42:52.572Z,177.1429
2023-05-19T09:44:00.678Z,180.7143
2023-05-19T09:45:08.678Z,178.1429
2023-05-19T09:46:16.885Z,184.7857
2023-05-19T09:47:24.903Z,179.2143
2023-05-19T09:48:32.991Z,182.5714
2023-05-19T09:49:41.279Z,183.3571
2023-05-19T09:50:49.260Z,184.0000
2023-05-19T09:51:57.195Z,183.0000
2023-05-19T09:53:05.261Z,178.5000
2023-05-19T09:54:13.385Z,178.9286
2023-05-19T09:55:21.358Z,182.2857
2023-05-19T09:56:29.442Z,183.4286
2023-05-19T09:57:37.358Z,184.5000
2023-05-19T09:58:45.414Z,185.5000
2023-05-19T09:59:53.487Z,188.6429
2023-05-19T10:01:01.631Z,191.4286
2023-05-19T10:02:09.760Z,193.5714
2023-05-19T10:03:17.828Z,188.9286
2023-05-19T10:04:25.922Z,187.1429
2023-05-19T10:05:34.320Z,186.1429
2023-05-19T10:06:42.296Z,184.5714
2023-05-19T10:07:50.044Z,186.1429
2023-05-19T10:08:58.157Z,185.4286
2023-05-19T10:10:06.175Z,190.0000
2023-05-19T10:11:14.209Z,191.6429
2023-05-19T10:12:22.159Z,198.1429
2023-05-19T10:13:30.232Z,201.4286
2023-05-19T10:14:38.275Z,197.7143
2023-05-19T10:15:57.327Z,197.0714
2023-05-19T10:16:59.481Z,197.3333
2023-05-19T10:18:07.545Z,200.4286
2023-05-19T10:19:15.548Z,203.1429
2023-05-19T10:20:23.573Z,204.3571
2023-05-19T10:21:31.667Z,204.2857
2023-05-19T10:22:39.753Z,198.5000
2023-05-19T10:23:47.895Z,193.3571
2023-05-19T10:24:55.820Z,197.0714
2023-05-19T10:26:03.754Z,196.6429
2023-05-19T10:27:11.834Z,196.6429
2023-05-19T10:28:19.921Z,196.5000
2023-05-19T10:29:28.129Z,200.2857
2023-05-19T10:30:36.110Z,203.1429
2023-05-19T10:31:44.338Z,204.0714
2023-05-19T10:32:52.308Z,206.1429
2023-05-19T10:34:00.398Z,205.5000
2023-05-19T10:35:08.460Z,201.5000
2023-05-19T10:36:16.535Z,203.5714
2023-05-19T10:37:24.538Z,205.0000
2023-05-19T10:38:32.543Z,206.0714
2023-05-19T10:39:40.657Z,210.2857
2023-05-19T10:40:48.543Z,208.1429
2023-05-19T10:41:56.629Z,206.4286
2023-05-19T10:43:04.672Z,208.6429
2023-05-19T10:44:12.916Z,203.8571
2023-05-19T10:45:21.127Z,204.7857
2023-05-19T10:46:28.959Z,208.3571
2023-05-19T10:47:37.046Z,206.4286
2023-05-19T10:48:45.125Z,203.4286
2023-05-19T10:49:53.344Z,197.9286
2023-05-19T10:51:01.272Z,195.5714
2023-05-19T10:52:09.369Z,196.1429
2023-05-19T10:53:17.349Z,203.5714
2023-05-19T10:54:25.689Z,199.1429
2023-05-19T10:55:33.525Z,201.5000
2023-05-19T10:56:41.443Z,204.4286
2023-05-19T10:57:49.510Z,203.2857
2023-05-19T10:58:57.644Z,203.7857
2023-05-19T11:00:05.692Z,207.5000
2023-05-19T11:01:13.837Z,203.8571
2023-05-19T11:02:21.807Z,207.0714
2023-05-19T11:04:37.913Z,213.0000
2023-05-19T11:05:46.011Z,218.7857
2023-05-19T11:06:54.117Z,221.0000
2023-05-19T11:08:02.201Z,224.3571
2023-05-19T11:09:10.160Z,223.4286
2023-05-19T11:10:18.133Z,223.6429
2023-05-19T11:11:26.202Z,223.4286
2023-05-19T11:12:34.210Z,227.7857
2023-05-19T11:13:42.405Z,226.7857
2023-05-19T11:14:50.451Z,228.7857
2023-05-19T11:15:58.562Z,227.1429
2023-05-19T11:17:06.728Z,224.1429
2023-05-19T11:18:14.703Z,223.6429
2023-05-19T11:19:22.886Z,226.4286
2023-05-19T11:20:30.794Z,222.7857
2023-05-19T11:21:38.962Z,220.9286
2023-05-19T11:22:46.892Z,227.0000
2023-05-19T11:23:55.121Z,224.6429
2023-05-19T11:25:02.865Z,225.5714
2023-05-19T11:26:10.961Z,227.6429
2023-05-19T11:27:19.109Z,228.6429
2023-05-19T11:28:27.277Z,223.7857
2023-05-19T11:29:35.245Z,222.7857
2023-05-19T11:30:43.347Z,219.0000
2023-05-19T11:31:51.555Z,218.0714
2023-05-19T11:32:59.442Z,219.5000
2023-05-19T11:34:07.503Z,219.4286
2023-05-19T11:35:15.668Z,220.8571
2023-05-19T11:36:23.630Z,212.0714
2023-05-19T11:37:31.675Z,208.2857
2023-05-19T11:38:39.690Z,209.6429
2023-05-19T11:39:47.689Z,209.7857
2023-05-19T11:40:55.749Z,210.7857
2023-05-19T11:42:03.824Z,209.7143
2023-05-19T11:43:11.915Z,212.0000
2023-05-19T11:44:20.007Z,221.2857
2023-05-19T11:45:28.079Z,225.0714
2023-05-19T11:46:36.472Z,232.1429
2023-05-19T11:48:00.827Z,229.7143
2023-05-19T11:48:57.393Z,235.0667
2023-05-19T11:50:05.215Z,241.9286
2023-05-19T11:51:13.335Z,246.8571
2023-05-19T11:52:21.383Z,253.4286
2023-05-19T11:53:29.246Z,258.7857
2023-05-19T11:54:37.332Z,266.7143
2023-05-19T11:55:45.803Z,267.6429
2023-05-19T11:56:53.713Z,271.6429
2023-05-19T11:58:04.649Z,273.8571
2023-05-19T11:59:14.546Z,275.7333
2023-05-19T12:00:22.573Z,284.3571
2023-05-19T12:01:30.637Z,285.0714
2023-05-19T12:02:38.864Z,292.5714
2023-05-19T12:03:46.922Z,299.6429
2023-05-19T12:04:54.963Z,302.5714
2023-05-19T12:06:02.961Z,299.7143
2023-05-19T12:07:10.847Z,300.3571
2023-05-19T12:08:18.997Z,304.5000
2023-05-19T12:09:27.030Z,304.4286
2023-05-19T12:10:35.133Z,300.8571
2023-05-19T12:11:43.207Z,303.7143
2023-05-19T12:12:51.226Z,302.7857
2023-05-19T12:13:59.325Z,298.2143
2023-05-19T12:15:07.347Z,295.5000
2023-05-19T12:16:15.522Z,296.6429
2023-05-19T12:17:23.602Z,292.1429
2023-05-19T12:18:31.520Z,294.0714
2023-05-19T12:19:39.593Z,293.6429
2023-05-19T12:20:47.776Z,286.5714
2023-05-19T12:21:55.675Z,286.6429
2023-05-19T12:23:03.850Z,288.6429
2023-05-19T12:24:11.812Z,288.0714
2023-05-19T12:25:19.857Z,289.4286
2023-05-19T12:26:28.049Z,295.0714
2023-05-19T12:27:35.971Z,295.0000
2023-05-19T12:28:44.156Z,295.9286
2023-05-19T12:29:52.170Z,295.0000
2023-05-19T12:31:00.332Z,296.4286
2023-05-19T12:32:08.425Z,307.0714
2023-05-19T12:33:16.468Z,311.1429
2023-05-19T12:34:24.417Z,320.1429
2023-05-19T12:35:32.488Z,320.1429
2023-05-19T12:36:40.494Z,322.2857
2023-05-19T12:37:48.524Z,327.4286
2023-05-19T12:38:56.560Z,329.4286
2023-05-19T12:40:04.845Z,324.8571
2023-05-19T12:41:13.023Z,317.7143
2023-05-19T12:42:20.831Z,316.7143
2023-05-19T12:43:28.962Z,314.0714
2023-05-19T12:44:36.963Z,304.6429
2023-05-19T12:45:45.129Z,291.3571
2023-05-19T12:46:53.235Z,292.8571
2023-05-19T12:48:01.372Z,290.5714
2023-05-19T12:49:09.313Z,283.7143
2023-05-19T12:50:17.390Z,275.5000
2023-05-19T12:51:25.367Z,272.0000
2023-05-19T12:52:33.385Z,270.5000
2023-05-19T12:53:41.436Z,266.7857
2023-05-19T12:54:49.629Z,265.0000
2023-05-19T12:55:57.746Z,262.8571
2023-05-19T12:57:05.913Z,257.0714
2023-05-19T12:58:13.874Z,250.2143
2023-05-19T12:59:37.093Z,241.0000
2023-05-19T13:00:34.987Z,237.8000
2023-05-19T13:01:42.912Z,243.0000
2023-05-19T13:02:51.110Z,245.7857
2023-05-19T13:03:59.206Z,237.0714
2023-05-19T13:05:06.920Z,235.4286
2023-05-19T13:06:14.991Z,238.8571
2023-05-19T13:07:23.042Z,237.7857
2023-05-19T13:08:31.469Z,245.7857
2023-05-19T13:09:39.274Z,252.9286
2023-05-19T13:10:47.589Z,258.2143
2023-05-19T13:11:55.450Z,264.1429
2023-05-19T13:13:03.552Z,265.7143
2023-05-19T13:14:11.515Z,264.3571
2023-05-19T13:15:19.595Z,266.8571
2023-05-19T13:16:27.671Z,266.1429
2023-05-19T13:17:35.768Z,266.6429
2023-05-19T13:18:43.816Z,266.0000
2023-05-19T13:19:51.824Z,264.2143
2023-05-19T13:20:59.819Z,259.0714
2023-05-19T13:22:07.951Z,252.9286
2023-05-19T13:23:16.212Z,245.4286
2023-05-19T13:24:24.336Z,245.3571